Time;durP1;ratioP1;P1;durP2;ratioP2;P2;SDS_P1;SDS_P2;PMS_P1;PMS_P2;Temp;Humidity;BMP_temperature;BMP_pressure;BME280_temperature;BME280_humidity;BME280_pressure;Samples;Min_cycle;Max_cycle;Signal;HPM_P1;HPM_P2
2021/01/01 00:00:14;;;;;;;46.33;41.50;;;2.80;99.90;;;;;;6163663;23;20412;-85
2021/01/01 00:02:42;;;;;;;45.43;39.43;;;2.80;99.90;;;;;;6163992;23;20471;-85
2021/01/01 00:05:15;;;;;;;38.23;33.90;;;2.80;99.90;;;;;;6167637;23;20907;-85
2021/01/01 00:07:44;;;;;;;39.70;35.50;;;2.80;99.90;;;;;;6169721;23;20417;-85
2021/01/01 00:10:11;;;;;;;40.70;36.30;;;2.80;99.90;;;;;;6168116;23;20888;-85
2021/01/01 00:12:39;;;;;;;38.33;33.07;;;2.90;99.90;;;;;;6167756;23;20181;-85
2021/01/01 00:15:07;;;;;;;36.97;31.30;;;2.90;99.90;;;;;;6168253;23;20427;-85
2021/01/01 00:17:34;;;;;;;32.30;28.23;;;2.90;99.90;;;;;;6168280;23;20449;-85
2021/01/01 00:20:02;;;;;;;32.27;28.03;;;2.90;99.90;;;;;;6169366;23;20427;-85
2021/01/01 00:22:30;;;;;;;29.27;25.87;;;2.80;99.90;;;;;;6168366;23;20404;-85
2021/01/01 00:24:57;;;;;;;33.00;28.17;;;2.90;99.90;;;;;;6170113;23;20444;-85
2021/01/01 00:27:28;;;;;;;33.30;29.70;;;2.80;99.90;;;;;;6168945;23;20413;-85
2021/01/01 00:29:56;;;;;;;31.53;25.97;;;2.80;99.90;;;;;;6169771;23;20412;-85
2021/01/01 00:32:23;;;;;;;29.97;24.17;;;2.90;99.90;;;;;;6172182;23;20463;-85
2021/01/01 00:34:50;;;;;;;27.47;22.23;;;2.90;99.90;;;;;;6172355;23;20839;-85
2021/01/01 00:37:18;;;;;;;28.20;22.63;;;2.90;99.90;;;;;;6171878;23;20435;-85
2021/01/01 00:39:47;;;;;;;27.37;22.77;;;2.90;99.90;;;;;;6172189;23;20515;-85
2021/01/01 00:42:14;;;;;;;27.80;22.60;;;2.90;99.90;;;;;;6169488;23;20420;-85
2021/01/01 00:44:42;;;;;;;29.20;22.70;;;2.90;99.90;;;;;;6170882;23;20478;-85
2021/01/01 00:47:10;;;;;;;25.87;22.87;;;2.90;99.90;;;;;;6183720;23;20396;-85
2021/01/01 00:49:38;;;;;;;27.90;21.77;;;2.90;99.90;;;;;;6172887;23;20443;-85
2021/01/01 00:52:06;;;;;;;27.13;23.43;;;2.90;99.90;;;;;;6173116;23;20743;-85
2021/01/01 00:54:34;;;;;;;26.03;21.97;;;2.90;99.90;;;;;;6173290;23;20499;-85
2021/01/01 00:57:02;;;;;;;27.30;24.40;;;2.90;99.90;;;;;;6173352;23;20437;-85
2021/01/01 00:59:29;;;;;;;27.00;24.10;;;2.90;99.90;;;;;;6174492;23;20752;-85
2021/01/01 01:01:58;;;;;;;26.90;22.57;;;2.90;99.90;;;;;;6170754;23;20402;-85
2021/01/01 01:04:25;;;;;;;25.90;22.10;;;2.90;99.90;;;;;;6170175;23;20411;-85
2021/01/01 01:06:52;;;;;;;27.43;23.00;;;2.90;99.90;;;;;;6183330;23;20392;-85
2021/01/01 01:09:20;;;;;;;28.23;22.67;;;2.90;99.90;;;;;;6181882;23;20495;-85
2021/01/01 01:11:47;;;;;;;28.73;22.10;;;2.90;99.90;;;;;;6170395;23;20423;-85
2021/01/01 01:14:15;;;;;;;30.23;23.47;;;2.90;99.90;;;;;;6169348;23;20522;-85
2021/01/01 01:16:43;;;;;;;27.47;23.40;;;2.90;99.90;;;;;;6169902;23;20440;-85
2021/01/01 01:19:10;;;;;;;27.93;22.53;;;2.90;99.90;;;;;;6170147;23;20491;-85
2021/01/01 01:21:37;;;;;;;28.70;24.83;;;2.90;99.90;;;;;;6171172;23;20431;-85
2021/01/01 01:24:05;;;;;;;29.07;24.97;;;2.90;99.90;;;;;;6171774;23;20416;-85
2021/01/01 01:26:33;;;;;;;27.80;23.90;;;2.90;99.90;;;;;;6171054;23;20416;-85
2021/01/01 01:29:00;;;;;;;27.80;23.47;;;2.90;99.90;;;;;;6171327;23;20428;-85
2021/01/01 01:31:28;;;;;;;27.93;23.93;;;2.90;99.90;;;;;;6183944;23;20775;-85
2021/01/01 01:33:56;;;;;;;35.17;26.83;;;2.90;99.90;;;;;;6172912;23;20420;-85
2021/01/01 01:36:23;;;;;;;29.43;25.40;;;2.90;99.90;;;;;;6172700;23;20446;-85
2021/01/01 01:38:51;;;;;;;33.10;29.40;;;2.90;99.90;;;;;;6173403;23;20448;-85
2021/01/01 01:41:18;;;;;;;33.10;28.10;;;2.90;99.90;;;;;;6185116;23;20398;-85
2021/01/01 01:43:50;;;;;;;30.53;27.27;;;2.90;99.90;;;;;;6184528;23;20420;-86
2021/01/01 01:46:18;;;;;;;35.20;29.43;;;2.90;99.90;;;;;;6173443;23;20416;-85
2021/01/01 01:49:14;;;;;;;32.43;26.50;;;2.90;99.90;;;;;;6112412;23;20436;-85
2021/01/01 01:51:44;;;;;;;32.20;26.77;;;2.80;99.90;;;;;;6173900;23;20520;-85
2021/01/01 01:54:13;;;;;;;30.87;27.53;;;2.90;99.90;;;;;;6185046;23;20388;-85
2021/01/01 01:56:42;;;;;;;31.30;26.10;;;2.90;99.90;;;;;;6174324;23;20470;-85
2021/01/01 01:59:14;;;;;;;34.30;29.60;;;2.90;99.90;;;;;;6173711;23;20438;-85
2021/01/01 02:01:41;;;;;;;33.80;28.90;;;2.90;99.90;;;;;;6174257;23;20418;-85
2021/01/01 02:04:10;;;;;;;32.50;28.97;;;2.90;99.90;;;;;;6172608;23;20429;-85
2021/01/01 02:06:41;;;;;;;33.07;29.47;;;2.90;99.90;;;;;;6172852;23;20448;-85
2021/01/01 02:09:25;;;;;;;35.30;29.37;;;2.90;99.90;;;;;;6171424;23;20442;-85
2021/01/01 02:11:55;;;;;;;31.50;27.73;;;2.90;99.90;;;;;;6171504;23;20420;-85
2021/01/01 02:14:28;;;;;;;33.43;27.63;;;2.90;99.90;;;;;;6171752;23;20455;-85
2021/01/01 02:16:56;;;;;;;33.37;28.67;;;2.90;99.90;;;;;;6172293;23;20429;-85
2021/01/01 02:19:27;;;;;;;34.03;28.50;;;2.90;99.90;;;;;;6173146;23;20440;-85
2021/01/01 02:22:25;;;;;;;35.47;30.70;;;2.90;99.90;;;;;;6172870;23;20439;-85
2021/01/01 02:24:52;;;;;;;34.37;30.27;;;3.00;99.90;;;;;;6171756;23;20422;-85
2021/01/01 02:27:20;;;;;;;34.90;30.60;;;3.00;99.90;;;;;;6172902;23;20746;-85
2021/01/01 02:29:54;;;;;;;33.70;28.20;;;3.00;99.90;;;;;;6183171;23;20377;-86
2021/01/01 02:32:25;;;;;;;33.47;29.70;;;3.00;99.90;;;;;;6184576;23;20470;-86
2021/01/01 02:35:01;;;;;;;31.13;27.30;;;3.00;99.90;;;;;;6173401;23;20480;-86
2021/01/01 02:37:30;;;;;;;37.73;29.07;;;3.00;99.90;;;;;;6184713;23;20431;-86
2021/01/01 02:39:57;;;;;;;36.93;29.93;;;3.00;99.90;;;;;;6172770;23;20514;-86
2021/01/01 02:42:24;;;;;;;33.57;29.50;;;3.00;99.90;;;;;;6172425;23;20436;-86
2021/01/01 02:44:51;;;;;;;34.40;29.97;;;3.00;99.90;;;;;;6171523;23;20419;-86
2021/01/01 02:47:31;;;;;;;34.73;28.33;;;3.00;99.90;;;;;;6172576;23;20414;-86
2021/01/01 02:50:03;;;;;;;35.17;30.43;;;3.00;99.90;;;;;;6171637;23;20407;-86
2021/01/01 02:52:32;;;;;;;31.03;27.70;;;3.00;99.90;;;;;;6172006;23;20424;-85
2021/01/01 02:55:01;;;;;;;33.10;28.77;;;3.10;99.90;;;;;;6172338;23;20880;-86
2021/01/01 02:57:34;;;;;;;33.83;29.20;;;3.00;99.90;;;;;;6172971;23;20435;-86
2021/01/01 03:00:08;;;;;;;34.70;28.80;;;3.00;99.90;;;;;;6172158;23;20479;-85
2021/01/01 03:02:35;;;;;;;32.10;27.83;;;3.00;99.90;;;;;;6172095;23;20410;-86
2021/01/01 03:05:05;;;;;;;31.03;27.70;;;3.00;99.90;;;;;;6173746;23;20408;-86
2021/01/01 03:07:36;;;;;;;32.90;28.00;;;3.10;99.90;;;;;;6173845;23;20412;-86
2021/01/01 03:10:06;;;;;;;32.73;26.93;;;3.00;99.90;;;;;;6175348;23;20427;-86
2021/01/01 03:12:50;;;;;;;32.50;27.57;;;3.10;99.90;;;;;;6175415;23;20892;-86
2021/01/01 03:15:24;;;;;;;34.47;30.20;;;3.00;99.90;;;;;;6174808;23;20400;-86
2021/01/01 03:17:51;;;;;;;33.63;27.00;;;3.10;99.90;;;;;;6175689;23;20788;-86
2021/01/01 03:20:18;;;;;;;34.73;30.17;;;3.10;99.90;;;;;;6175832;23;20545;-86
2021/01/01 03:22:49;;;;;;;31.83;28.13;;;3.10;99.90;;;;;;6174831;23;20882;-86
2021/01/01 03:25:17;;;;;;;33.30;29.73;;;3.00;99.90;;;;;;6175956;23;20471;-86
2021/01/01 03:27:44;;;;;;;32.17;28.50;;;3.10;99.90;;;;;;6175770;23;20907;-86
2021/01/01 03:30:12;;;;;;;35.80;29.43;;;3.10;99.90;;;;;;6186059;23;20400;-86
2021/01/01 03:32:40;;;;;;;33.40;29.87;;;3.10;99.90;;;;;;6187471;23;20418;-86
2021/01/01 03:35:08;;;;;;;33.33;28.70;;;3.10;99.90;;;;;;6187803;23;20436;-86
2021/01/01 03:37:38;;;;;;;32.97;28.37;;;3.10;99.90;;;;;;6177622;23;20433;-86
2021/01/01 03:40:09;;;;;;;33.57;28.23;;;3.10;99.90;;;;;;6179944;23;20452;-85
2021/01/01 03:42:37;;;;;;;33.70;29.60;;;3.10;99.90;;;;;;6179477;23;20424;-85
2021/01/01 03:45:10;;;;;;;32.63;29.10;;;3.10;99.90;;;;;;6178134;23;20739;-85
2021/01/01 03:47:43;;;;;;;33.93;29.53;;;3.10;99.90;;;;;;6173275;23;20803;-85
2021/01/01 03:50:24;;;;;;;33.77;28.33;;;3.10;99.90;;;;;;6172900;23;20423;-85
2021/01/01 03:53:07;;;;;;;35.47;31.63;;;3.10;99.90;;;;;;6172431;23;20808;-85
2021/01/01 03:55:48;;;;;;;32.40;29.00;;;3.10;99.90;;;;;;6172401;23;20419;-85
2021/01/01 03:58:17;;;;;;;32.37;28.73;;;3.10;99.90;;;;;;6184187;23;20436;-86
2021/01/01 04:00:45;;;;;;;35.40;29.43;;;3.10;99.90;;;;;;6173345;23;20410;-86
2021/01/01 04:03:12;;;;;;;34.30;30.67;;;3.10;99.90;;;;;;6170445;23;20424;-86
2021/01/01 04:05:39;;;;;;;36.93;31.83;;;3.10;99.90;;;;;;6170000;23;20435;-86
2021/01/01 04:08:08;;;;;;;36.03;32.17;;;3.10;99.90;;;;;;6169786;23;20431;-86
2021/01/01 04:10:35;;;;;;;34.20;30.70;;;3.10;99.90;;;;;;6171001;23;20173;-86
2021/01/01 04:13:04;;;;;;;34.57;30.10;;;3.10;99.90;;;;;;6171481;23;20424;-86
2021/01/01 04:15:31;;;;;;;34.50;30.80;;;3.10;99.90;;;;;;6170837;23;20412;-86
2021/01/01 04:18:10;;;;;;;32.00;28.55;;;3.10;99.90;;;;;;6169137;23;20413;-87
2021/01/01 04:20:50;;;;;;;35.50;31.70;;;3.10;99.90;;;;;;6181544;23;20597;-87
2021/01/01 04:23:31;;;;;;;33.90;30.30;;;3.10;99.90;;;;;;6169828;23;20427;-87
2021/01/01 04:26:09;;;;;;;;;;;;;;;;;;;;;
2021/01/01 04:28:42;;;;;;;32.30;28.33;;;3.10;99.90;;;;;;6171320;23;20460;-86
2021/01/01 04:31:12;;;;;;;32.77;28.90;;;3.10;99.90;;;;;;6185108;23;20392;-86
2021/01/01 04:33:43;;;;;;;32.70;28.43;;;3.10;99.90;;;;;;6169258;23;20411;-87
2021/01/01 04:36:10;;;;;;;32.60;29.10;;;3.10;99.90;;;;;;6168474;23;20412;-87
2021/01/01 04:38:37;;;;;;;30.53;26.90;;;3.10;99.90;;;;;;6169204;23;20447;-87
2021/01/01 04:41:06;;;;;;;34.57;28.70;;;3.20;99.90;;;;;;6169990;23;20463;-87
2021/01/01 04:43:35;;;;;;;30.97;26.10;;;3.10;99.90;;;;;;6169878;23;20439;-87
2021/01/01 04:46:09;;;;;;;30.87;26.87;;;3.10;99.90;;;;;;6169593;23;20500;-87
2021/01/01 04:48:37;;;;;;;31.67;28.10;;;3.10;99.90;;;;;;6169016;23;20432;-87
2021/01/01 04:51:07;;;;;;;33.40;29.10;;;3.10;99.90;;;;;;6168478;23;20471;-87
2021/01/01 04:53:39;;;;;;;30.30;27.03;;;3.10;99.90;;;;;;6169445;23;20415;-87
2021/01/01 04:56:10;;;;;;;31.67;28.33;;;3.10;99.90;;;;;;6168169;23;20411;-86
2021/01/01 04:58:46;;;;;;;32.40;28.83;;;3.10;99.90;;;;;;6169329;23;20473;-86
2021/01/01 05:01:22;;;;;;;29.20;25.83;;;3.10;99.90;;;;;;6169368;23;20417;-86
2021/01/01 05:03:49;;;;;;;31.10;27.67;;;3.10;99.90;;;;;;6169560;23;20412;-86
2021/01/01 05:06:37;;;;;;;32.83;29.00;;;3.20;99.90;;;;;;6180969;23;20393;-86
2021/01/01 05:09:04;;;;;;;31.63;28.23;;;3.20;99.90;;;;;;6169439;23;20428;-86
2021/01/01 05:11:32;;;;;;;33.07;29.47;;;3.20;99.90;;;;;;6169107;23;20491;-86
2021/01/01 05:14:03;;;;;;;33.03;28.50;;;3.20;99.90;;;;;;6181446;23;20900;-86
2021/01/01 05:16:35;;;;;;;32.13;28.60;;;3.20;99.90;;;;;;6169489;23;20428;-86
2021/01/01 05:19:10;;;;;;;32.60;27.30;;;3.20;99.90;;;;;;6169420;23;20502;-86
2021/01/01 05:21:38;;;;;;;34.00;30.30;;;3.20;99.90;;;;;;6169527;23;20431;-86
2021/01/01 05:24:08;;;;;;;38.17;29.93;;;3.20;99.90;;;;;;6169300;23;20440;-86
2021/01/01 05:27:01;;;;;;;34.20;28.30;;;3.20;99.90;;;;;;6169857;23;20436;-86
2021/01/01 05:29:44;;;;;;;;;;;;;;;;;;;;;
2021/01/01 05:32:20;;;;;;;33.60;30.00;;;3.20;99.90;;;;;;6170297;23;20791;-86
2021/01/01 05:34:52;;;;;;;32.33;28.83;;;3.10;99.90;;;;;;6169684;23;20412;-86
2021/01/01 05:37:28;;;;;;;34.03;30.53;;;3.20;99.90;;;;;;6169537;23;20472;-86
2021/01/01 05:40:07;;;;;;;35.70;30.00;;;3.20;99.90;;;;;;6182222;23;20392;-86
2021/01/01 05:42:38;;;;;;;35.17;30.90;;;3.20;99.90;;;;;;6170939;23;20420;-86
2021/01/01 05:45:15;;;;;;;33.00;29.57;;;3.10;99.90;;;;;;6169846;23;20463;-86
2021/01/01 05:48:02;;;;;;;31.10;27.67;;;3.20;99.90;;;;;;6170931;23;20416;-86
2021/01/01 05:50:31;;;;;;;32.77;29.27;;;3.10;99.90;;;;;;6170898;23;20412;-86
2021/01/01 05:53:15;;;;;;;33.30;27.80;;;3.10;99.90;;;;;;6170895;23;20423;-86
2021/01/01 05:55:44;;;;;;;34.70;29.37;;;3.10;99.90;;;;;;6169766;23;20471;-87
2021/01/01 05:58:21;;;;;;;31.40;27.70;;;3.10;99.90;;;;;;6178937;23;20436;-86
2021/01/01 06:00:54;;;;;;;31.97;26.83;;;3.10;99.90;;;;;;6167661;23;20412;-86
2021/01/01 06:03:33;;;;;;;32.97;29.37;;;3.10;99.90;;;;;;6166903;23;20443;-86
2021/01/01 06:06:04;;;;;;;30.70;27.40;;;3.10;99.90;;;;;;6167934;23;20809;-86
2021/01/01 06:08:34;;;;;;;29.73;25.93;;;3.10;99.90;;;;;;6166622;23;20481;-86
2021/01/01 06:11:03;;;;;;;31.17;27.77;;;3.10;99.90;;;;;;6178418;23;20723;-86
2021/01/01 06:13:32;;;;;;;31.47;28.03;;;3.10;99.90;;;;;;6179309;23;20443;-86
2021/01/01 06:16:01;;;;;;;31.27;27.77;;;3.10;99.90;;;;;;6167562;23;20478;-86
2021/01/01 06:18:31;;;;;;;30.33;26.60;;;3.10;99.90;;;;;;6167470;23;20444;-87
2021/01/01 06:21:03;;;;;;;33.10;27.90;;;3.00;99.90;;;;;;6168051;23;20467;-87
2021/01/01 06:23:39;;;;;;;31.83;27.40;;;3.00;99.90;;;;;;6179798;23;20725;-87
2021/01/01 06:26:18;;;;;;;;;;;;;;;;;;;;;
2021/01/01 06:28:49;;;;;;;30.50;26.80;;;3.00;99.90;;;;;;6168110;23;20506;-86
2021/01/01 06:34:28;;;;;;;35.77;27.83;;;3.00;99.90;;;;;;6167886;23;20460;-86
2021/01/01 06:36:56;;;;;;;33.13;27.93;;;3.00;99.90;;;;;;6169169;23;20500;-86
2021/01/01 06:39:43;;;;;;;34.40;29.10;;;3.00;99.90;;;;;;6169877;23;20436;-86
2021/01/01 06:42:11;;;;;;;29.80;25.27;;;2.90;99.90;;;;;;6170693;23;20417;-86
2021/01/01 06:44:40;;;;;;;33.77;29.07;;;2.90;99.90;;;;;;6180630;23;20397;-86
2021/01/01 06:47:41;;;;;;;32.70;28.70;;;2.90;99.90;;;;;;6171205;23;20423;-86
2021/01/01 06:50:27;;;;;;;34.17;29.60;;;2.90;99.90;;;;;;6171436;23;20411;-87
2021/01/01 06:53:02;;;;;;;36.07;27.03;;;2.90;99.90;;;;;;6171798;23;20699;-86
2021/01/01 06:55:32;;;;;;;37.70;26.43;;;2.80;99.90;;;;;;6175441;23;20416;-86
2021/01/01 06:58:01;;;;;;;28.67;25.07;;;2.80;99.90;;;;;;6169046;23;20448;-86
2021/01/01 07:01:05;;;;;;;34.17;26.30;;;2.80;99.90;;;;;;6181694;23;20911;-86
2021/01/01 07:03:40;;;;;;;30.67;25.13;;;2.80;99.90;;;;;;6170398;23;20435;-86
2021/01/01 07:06:37;;;;;;;32.70;26.73;;;2.80;99.90;;;;;;6169907;23;20418;-86
2021/01/01 07:09:11;;;;;;;30.57;24.10;;;2.80;99.90;;;;;;6169571;23;20443;-85
2021/01/01 07:11:45;;;;;;;32.67;25.70;;;2.80;99.90;;;;;;6168469;23;20408;-85
2021/01/01 07:14:15;;;;;;;30.87;25.80;;;2.80;99.90;;;;;;6181253;23;20420;-85
2021/01/01 07:16:45;;;;;;;34.37;26.67;;;2.80;99.90;;;;;;6181960;23;20394;-86
2021/01/01 07:19:15;;;;;;;32.40;25.90;;;2.80;99.90;;;;;;6168920;23;20458;-86
2021/01/01 07:21:44;;;;;;;29.83;26.63;;;2.70;99.90;;;;;;6169868;23;20496;-86
2021/01/01 07:24:11;;;;;;;33.03;27.37;;;2.70;99.90;;;;;;6170642;23;20443;-86
2021/01/01 07:26:39;;;;;;;33.37;28.70;;;2.80;99.90;;;;;;6170382;23;20475;-86
2021/01/01 07:29:06;;;;;;;32.33;25.83;;;2.80;99.90;;;;;;6182081;23;20463;-86
2021/01/01 07:31:33;;;;;;;29.97;26.40;;;2.80;99.90;;;;;;6183031;23;20400;-86
2021/01/01 07:34:08;;;;;;;32.90;26.40;;;2.80;99.90;;;;;;6171103;23;20420;-86
2021/01/01 07:36:36;;;;;;;35.37;27.60;;;2.80;99.90;;;;;;6168020;23;20833;-86
2021/01/01 07:39:06;;;;;;;32.70;25.03;;;2.80;99.90;;;;;;6168361;23;20436;-86
2021/01/01 07:41:34;;;;;;;32.77;25.43;;;2.80;99.90;;;;;;6167741;23;20752;-86
2021/01/01 07:44:02;;;;;;;35.57;29.40;;;2.80;99.90;;;;;;6168887;23;20423;-86
2021/01/01 07:46:33;;;;;;;33.47;29.63;;;2.80;99.90;;;;;;6169194;23;20413;-86
2021/01/01 07:49:01;;;;;;;33.07;28.90;;;2.80;99.90;;;;;;6169858;23;20436;-86
2021/01/01 07:51:33;;;;;;;35.30;27.70;;;2.80;99.90;;;;;;6183918;23;20405;-86
2021/01/01 07:54:17;;;;;;;33.83;29.77;;;2.90;99.90;;;;;;6173213;23;20171;-86
2021/01/01 07:56:48;;;;;;;36.37;30.40;;;2.90;99.90;;;;;;6181943;23;20396;-86
2021/01/01 07:59:20;;;;;;;31.63;27.70;;;2.80;99.90;;;;;;6169152;23;20438;-86
2021/01/01 08:01:48;;;;;;;35.22;29.13;;;2.90;99.90;;;;;;6167377;23;20491;-86
2021/01/01 08:04:17;;;;;;;33.83;28.80;;;3.00;99.90;;;;;;6167592;23;20234;-86
2021/01/01 08:06:45;;;;;;;33.83;29.00;;;3.00;99.90;;;;;;6168853;23;20430;-86
2021/01/01 08:09:12;;;;;;;40.63;31.07;;;3.00;99.90;;;;;;6169441;23;20427;-86
2021/01/01 08:11:40;;;;;;;40.77;31.67;;;3.00;99.90;;;;;;6168885;23;20419;-86
2021/01/01 08:14:08;;;;;;;39.43;30.83;;;3.00;99.90;;;;;;6169015;23;20799;-86
2021/01/01 08:16:43;;;;;;;39.30;32.23;;;3.00;99.90;;;;;;6168532;23;20412;-86
2021/01/01 08:19:24;;;;;;;38.83;31.77;;;3.00;99.90;;;;;;6167984;23;20449;-86
2021/01/01 08:22:07;;;;;;;35.33;30.20;;;3.10;99.90;;;;;;6181830;23;20414;-86
2021/01/01 08:25:12;;;;;;;35.93;29.80;;;3.00;99.90;;;;;;6169642;23;20508;-86
2021/01/01 08:27:46;;;;;;;37.80;31.30;;;3.00;99.90;;;;;;6165074;23;20416;-86
2021/01/01 08:30:15;;;;;;;41.40;32.87;;;3.00;99.90;;;;;;6169633;23;20423;-86
2021/01/01 08:32:44;;;;;;;37.13;31.00;;;3.00;99.90;;;;;;6170055;23;20431;-86
2021/01/01 08:35:12;;;;;;;41.40;35.33;;;3.00;99.90;;;;;;6168830;23;20421;-86
2021/01/01 08:37:53;;;;;;;;;;;;;;;;;;;;;
2021/01/01 08:40:22;;;;;;;39.80;33.80;;;3.10;99.90;;;;;;6169756;23;20519;-86
2021/01/01 08:42:54;;;;;;;40.30;34.27;;;3.10;99.90;;;;;;6182683;23;20413;-86
2021/01/01 08:45:30;;;;;;;39.33;33.77;;;3.10;99.90;;;;;;6170774;23;20440;-86
2021/01/01 08:47:57;;;;;;;36.60;31.50;;;3.10;99.90;;;;;;6168956;23;20440;-86
2021/01/01 08:50:27;;;;;;;39.17;32.83;;;3.10;99.90;;;;;;6170930;23;20404;-87
2021/01/01 08:52:59;;;;;;;41.87;35.83;;;3.20;99.90;;;;;;6170293;23;20411;-87
2021/01/01 08:55:27;;;;;;;40.27;33.20;;;3.20;99.90;;;;;;6170239;23;20422;-87
2021/01/01 08:58:07;;;;;;;41.00;34.47;;;3.20;99.90;;;;;;6170638;23;20450;-87
2021/01/01 09:00:34;;;;;;;39.03;34.53;;;3.20;99.90;;;;;;6170286;23;20404;-87
2021/01/01 09:03:03;;;;;;;42.63;35.30;;;3.20;99.90;;;;;;6171275;23;20467;-87
2021/01/01 09:05:32;;;;;;;41.77;34.67;;;3.20;99.90;;;;;;6172778;23;20412;-86
2021/01/01 09:08:07;;;;;;;48.10;35.97;;;3.20;99.90;;;;;;6171408;23;20435;-86
2021/01/01 09:10:35;;;;;;;40.27;34.60;;;3.30;99.90;;;;;;6171286;23;20443;-86
2021/01/01 09:13:17;;;;;;;38.57;33.37;;;3.30;99.90;;;;;;6171667;23;20436;-86
2021/01/01 09:15:46;;;;;;;36.30;32.37;;;3.30;99.90;;;;;;6172485;23;20447;-86
2021/01/01 09:18:14;;;;;;;38.03;33.70;;;3.30;99.90;;;;;;6182677;23;20440;-86
2021/01/01 09:20:46;;;;;;;38.03;33.37;;;3.30;99.90;;;;;;6173409;23;20898;-86
2021/01/01 09:23:15;;;;;;;44.67;37.03;;;3.40;99.90;;;;;;6180126;23;20389;-86
2021/01/01 09:25:45;;;;;;;42.37;36.47;;;3.40;99.90;;;;;;6167906;23;20432;-87
2021/01/01 09:28:19;;;;;;;41.83;34.57;;;3.40;99.90;;;;;;6167536;23;20440;-87
2021/01/01 09:30:49;;;;;;;42.30;33.97;;;3.40;99.90;;;;;;6167705;23;20970;-86
2021/01/01 09:33:20;;;;;;;39.97;34.90;;;3.50;99.90;;;;;;6167629;23;20415;-86
2021/01/01 09:35:47;;;;;;;40.40;32.93;;;3.50;99.90;;;;;;6167573;23;20415;-87
2021/01/01 09:38:15;;;;;;;40.47;33.37;;;3.60;99.90;;;;;;6167488;23;20503;-86
2021/01/01 09:40:42;;;;;;;41.10;33.10;;;3.60;99.90;;;;;;6167418;23;20412;-86
2021/01/01 09:43:11;;;;;;;38.87;33.43;;;3.60;99.90;;;;;;6166607;23;20408;-86
2021/01/01 09:45:40;;;;;;;39.27;34.27;;;3.60;99.90;;;;;;6166439;23;20426;-86
2021/01/01 09:48:08;;;;;;;39.63;31.57;;;3.70;99.90;;;;;;6165596;23;20444;-86
2021/01/01 09:50:37;;;;;;;38.23;32.43;;;3.70;99.90;;;;;;6165884;23;20484;-86
2021/01/01 09:53:10;;;;;;;40.33;34.10;;;3.80;99.90;;;;;;6166178;23;20508;-86
2021/01/01 09:55:37;;;;;;;39.77;31.97;;;3.80;99.90;;;;;;6165386;23;20451;-86
2021/01/01 09:58:04;;;;;;;34.63;29.47;;;3.80;99.90;;;;;;6165402;23;20491;-86
2021/01/01 10:00:49;;;;;;;36.87;32.87;;;3.80;99.90;;;;;;6167680;23;20522;-86
2021/01/01 10:03:17;;;;;;;38.42;31.05;;;3.80;99.90;;;;;;6163531;23;20421;-86
2021/01/01 10:05:47;;;;;;;37.97;33.00;;;3.90;99.90;;;;;;6167344;23;20169;-88
2021/01/01 10:08:15;;;;;;;36.57;30.97;;;3.90;99.90;;;;;;6162427;23;20951;-87
2021/01/01 10:10:45;;;;;;;36.57;30.17;;;4.00;99.90;;;;;;6173383;23;20411;-87
2021/01/01 10:13:13;;;;;;;36.40;30.80;;;4.00;99.90;;;;;;6159255;23;20464;-87
2021/01/01 10:15:40;;;;;;;35.47;30.90;;;4.10;99.90;;;;;;6161074;23;20439;-87
2021/01/01 10:18:08;;;;;;;36.77;32.70;;;4.20;99.90;;;;;;6161437;23;20923;-87
2021/01/01 10:20:36;;;;;;;35.40;31.77;;;4.20;99.90;;;;;;6160563;23;20938;-87
2021/01/01 10:23:03;;;;;;;38.20;31.47;;;4.20;99.90;;;;;;6160760;23;20411;-87
2021/01/01 10:25:30;;;;;;;35.77;30.40;;;4.20;99.90;;;;;;6160182;23;20404;-87
2021/01/01 10:27:57;;;;;;;34.77;30.67;;;4.20;99.90;;;;;;6161385;23;20440;-87
2021/01/01 10:30:25;;;;;;;33.13;28.60;;;4.20;99.90;;;;;;6162627;23;20439;-87
2021/01/01 10:32:55;;;;;;;34.40;30.70;;;4.20;99.90;;;;;;6161195;23;20519;-87
2021/01/01 10:35:23;;;;;;;35.17;30.13;;;4.20;99.90;;;;;;6161416;23;20416;-87
2021/01/01 10:37:50;;;;;;;34.70;29.80;;;4.30;99.90;;;;;;6162661;23;20459;-87
2021/01/01 10:40:18;;;;;;;33.00;29.10;;;4.30;99.90;;;;;;6162519;23;20495;-87
2021/01/01 10:42:45;;;;;;;31.40;27.63;;;4.30;99.90;;;;;;6161813;23;20440;-86
2021/01/01 10:45:32;;;;;;;32.47;29.17;;;4.30;99.90;;;;;;6162678;23;20412;-87
2021/01/01 10:48:03;;;;;;;31.80;28.43;;;4.30;99.90;;;;;;6162931;23;20461;-87
2021/01/01 10:50:31;;;;;;;33.60;28.53;;;4.30;99.90;;;;;;6162936;23;20404;-87
2021/01/01 10:52:58;;;;;;;34.00;30.27;;;4.30;99.90;;;;;;6163059;23;20428;-87
2021/01/01 10:55:25;;;;;;;35.33;30.67;;;4.40;99.90;;;;;;6160625;23;20423;-87
2021/01/01 10:57:53;;;;;;;32.97;29.40;;;4.30;99.90;;;;;;6160387;23;20456;-87
2021/01/01 11:00:20;;;;;;;35.77;29.63;;;4.40;99.90;;;;;;6160192;23;20417;-87
2021/01/01 11:02:47;;;;;;;34.90;29.83;;;4.40;99.90;;;;;;6158708;23;20962;-87
2021/01/01 11:05:15;;;;;;;34.20;29.70;;;4.40;99.90;;;;;;6161770;23;20416;-86
2021/01/01 11:07:44;;;;;;;32.97;28.53;;;4.50;99.90;;;;;;6162212;23;20420;-87
2021/01/01 11:10:12;;;;;;;35.37;27.17;;;4.50;99.90;;;;;;6174798;23;20381;-87
2021/01/01 11:12:39;;;;;;;29.93;26.43;;;4.60;99.90;;;;;;6164662;23;20432;-86
2021/01/01 12:22:03;;;;;;;29.63;26.30;;;5.70;99.90;;;;;;6166183;23;20423;-87
2021/01/01 12:27:21;;;;;;;29.37;25.50;;;5.70;99.90;;;;;;6154286;23;20412;-87
2021/01/01 12:29:51;;;;;;;29.70;25.27;;;5.80;99.90;;;;;;6165774;23;20445;-86
2021/01/01 12:32:20;;;;;;;26.80;23.50;;;5.80;99.90;;;;;;6164076;23;20413;-86
2021/01/01 12:34:47;;;;;;;30.33;26.90;;;5.80;99.90;;;;;;6165518;23;20477;-86
2021/01/01 12:37:15;;;;;;;30.30;26.87;;;5.70;99.90;;;;;;6164435;23;20899;-86
2021/01/01 12:39:42;;;;;;;28.33;25.30;;;5.70;99.90;;;;;;6164461;23;20429;-86
2021/01/01 12:42:10;;;;;;;29.97;26.77;;;5.70;99.90;;;;;;6164362;23;20419;-86
2021/01/01 12:44:39;;;;;;;32.27;26.80;;;5.70;99.90;;;;;;6164708;23;20507;-86
2021/01/01 12:47:07;;;;;;;31.13;27.73;;;5.70;99.90;;;;;;6165211;23;20740;-86
2021/01/01 12:49:34;;;;;;;30.13;25.53;;;5.70;99.90;;;;;;6164721;23;20517;-87
2021/01/01 12:52:01;;;;;;;33.22;29.25;;;5.70;99.90;;;;;;6163711;23;20417;-86
2021/01/01 12:54:29;;;;;;;34.47;28.00;;;5.80;99.90;;;;;;6164297;23;20173;-86
2021/01/01 12:56:57;;;;;;;32.50;29.00;;;5.80;99.90;;;;;;6165546;23;20788;-86
2021/01/01 12:59:24;;;;;;;32.43;28.90;;;5.80;99.90;;;;;;6175360;23;20441;-86
2021/01/01 13:01:53;;;;;;;36.38;31.30;;;5.80;99.90;;;;;;6163356;23;20424;-87
2021/01/01 13:04:28;;;;;;;34.80;30.77;;;5.90;99.90;;;;;;6145911;23;20219;-82
2021/01/01 13:06:56;;;;;;;34.33;30.70;;;5.90;99.90;;;;;;6129914;23;20426;-80
2021/01/01 13:09:24;;;;;;;35.63;31.60;;;5.90;99.90;;;;;;6129119;23;20436;-83
2021/01/01 13:11:52;;;;;;;36.37;32.20;;;5.90;99.90;;;;;;6131147;23;20409;-80
2021/01/01 13:14:19;;;;;;;36.03;32.13;;;5.90;99.90;;;;;;6131021;23;20416;-82
2021/01/01 13:16:47;;;;;;;36.87;31.73;;;5.90;99.90;;;;;;6129896;23;20526;-80
2021/01/01 13:19:14;;;;;;;38.40;33.57;;;5.90;99.90;;;;;;6131028;23;20484;-83
2021/01/01 13:21:42;;;;;;;34.77;31.03;;;5.90;99.90;;;;;;6131606;23;20405;-83
2021/01/01 13:24:10;;;;;;;35.13;31.03;;;5.90;99.90;;;;;;6131398;23;20445;-82
2021/01/01 13:26:37;;;;;;;37.07;32.13;;;5.90;99.90;;;;;;6131322;23;20424;-82
2021/01/01 13:29:05;;;;;;;37.70;33.70;;;5.90;99.90;;;;;;6130971;23;20425;-81
2021/01/01 13:31:36;;;;;;;35.83;32.13;;;5.90;99.90;;;;;;6130957;23;20488;-82
2021/01/01 13:34:05;;;;;;;39.67;33.47;;;5.90;99.90;;;;;;6142956;23;20406;-83
2021/01/01 13:36:32;;;;;;;36.07;32.33;;;5.90;99.90;;;;;;6131658;23;20414;-83
2021/01/01 13:39:03;;;;;;;37.70;33.60;;;5.90;99.90;;;;;;6130820;23;20449;-83
2021/01/01 13:41:30;;;;;;;37.20;33.30;;;5.90;99.90;;;;;;6142565;23;20394;-83
2021/01/01 13:43:57;;;;;;;38.40;34.40;;;5.90;99.90;;;;;;6130937;23;20474;-83
2021/01/01 13:46:27;;;;;;;38.97;34.90;;;5.90;99.90;;;;;;6138412;23;20417;-82
2021/01/01 13:48:54;;;;;;;39.03;34.80;;;5.80;99.90;;;;;;6132836;23;20506;-82
2021/01/01 13:51:29;;;;;;;43.10;36.43;;;5.80;99.90;;;;;;6129738;23;20798;-82
2021/01/01 13:53:57;;;;;;;42.37;35.80;;;5.80;99.90;;;;;;6129824;23;20456;-82
2021/01/01 13:56:25;;;;;;;42.00;37.50;;;5.80;99.90;;;;;;6130400;23;20496;-83
2021/01/01 13:58:53;;;;;;;43.57;38.83;;;5.80;99.90;;;;;;6129871;23;20438;-83
2021/01/01 14:01:22;;;;;;;42.70;37.20;;;5.70;99.90;;;;;;6131665;23;20421;-81
2021/01/01 14:03:50;;;;;;;43.00;38.37;;;5.70;99.90;;;;;;6130672;23;20436;-82
2021/01/01 14:06:17;;;;;;;46.90;41.83;;;5.70;99.90;;;;;;6141722;23;20393;-83
2021/01/01 14:08:44;;;;;;;47.50;41.53;;;5.70;99.90;;;;;;6130547;23;20429;-82
2021/01/01 14:11:13;;;;;;;44.03;39.00;;;5.70;99.90;;;;;;6129779;23;20461;-82